createdAt,value
2022-08-07T00:00:35.844Z,3.30
2022-08-07T00:02:44.514Z,3.03
2022-08-07T00:04:46.618Z,3.05
2022-08-07T00:06:51.620Z,2.85
2022-08-07T00:08:54.033Z,3.28
2022-08-07T00:10:58.368Z,2.92
2022-08-07T00:13:09.895Z,3.95
2022-08-07T00:15:24.431Z,4.18
2022-08-07T00:17:38.313Z,3.20
2022-08-07T00:20:00.938Z,3.50
2022-08-07T00:22:03.346Z,3.70
2022-08-07T00:24:05.835Z,3.13
2022-08-07T00:26:18.484Z,3.53
2022-08-07T00:28:21.967Z,3.33
2022-08-07T00:30:27.506Z,3.83
2022-08-07T00:32:30.334Z,4.45
2022-08-07T00:34:36.913Z,12.55
2022-08-07T00:36:42.682Z,14.85
2022-08-07T00:38:45.343Z,21.38
2022-08-07T00:40:47.692Z,16.42
2022-08-07T00:42:50.272Z,15.10
2022-08-07T00:44:54.545Z,17.67
2022-08-07T00:46:56.407Z,16.65
2022-08-07T00:48:58.313Z,12.50
2022-08-07T00:51:04.489Z,4.82
2022-08-07T00:53:06.619Z,3.55
2022-08-07T00:55:12.623Z,4.53
2022-08-07T00:57:19.923Z,3.20
2022-08-07T00:59:35.031Z,2.95
2022-08-07T01:01:41.476Z,2.78
2022-08-07T01:03:57.276Z,3.10
2022-08-07T01:06:02.220Z,3.00
2022-08-07T01:08:04.244Z,2.78
2022-08-07T01:10:11.002Z,3.03
2022-08-07T01:12:29.133Z,3.00
2022-08-07T01:14:32.410Z,2.75
2022-08-07T01:16:39.325Z,2.45
2022-08-07T01:18:45.318Z,2.63
2022-08-07T01:23:32.691Z,2.53
2022-08-07T01:25:55.234Z,2.58
2022-08-07T01:27:58.361Z,2.80
2022-08-07T01:30:02.838Z,2.70
2022-08-07T01:32:05.533Z,3.00
2022-08-07T01:34:14.084Z,2.78
2022-08-07T01:36:16.907Z,2.65
2022-08-07T01:38:24.913Z,3.27
2022-08-07T01:40:29.004Z,2.97
2022-08-07T01:42:39.887Z,2.75
2022-08-07T01:44:53.461Z,3.30
2022-08-07T01:46:55.546Z,2.58
2022-08-07T01:48:59.941Z,2.70
2022-08-07T01:52:01.153Z,2.67
2022-08-07T01:54:09.642Z,3.00
2022-08-07T01:56:01.485Z,2.97
2022-08-07T01:58:28.887Z,2.75
2022-08-07T02:00:32.070Z,2.90
2022-08-07T02:03:19.034Z,2.78
2022-08-07T02:05:43.147Z,3.30
2022-08-07T02:07:51.156Z,3.13
2022-08-07T02:09:58.734Z,2.88
2022-08-07T02:12:05.281Z,3.38
2022-08-07T02:14:09.447Z,3.58
2022-08-07T02:16:17.581Z,3.10
2022-08-07T02:18:22.787Z,3.42
2022-08-07T02:20:30.587Z,3.42
2022-08-07T02:22:33.182Z,2.88
2022-08-07T02:24:37.129Z,3.60
2022-08-07T02:26:40.926Z,2.90
2022-08-07T02:28:45.792Z,3.30
2022-08-07T02:30:50.369Z,3.03
2022-08-07T02:33:08.960Z,3.03
2022-08-07T02:35:12.182Z,3.40
2022-08-07T02:37:23.878Z,2.53
2022-08-07T02:39:43.112Z,3.10
2022-08-07T02:41:50.737Z,2.47
2022-08-07T02:44:00.577Z,3.00
2022-08-07T02:46:05.364Z,3.03
2022-08-07T02:48:10.033Z,2.88
2022-08-07T02:50:12.469Z,3.30
2022-08-07T02:52:21.623Z,3.00
2022-08-07T02:54:35.825Z,2.95
2022-08-07T02:56:40.015Z,2.90
2022-08-07T02:58:47.294Z,2.95
2022-08-07T03:00:52.371Z,2.85
2022-08-07T03:02:55.547Z,3.42
2022-08-07T03:05:00.233Z,4.47
2022-08-07T03:07:10.647Z,4.57
2022-08-07T03:09:13.394Z,3.17
2022-08-07T03:11:17.097Z,2.95
2022-08-07T03:13:20.191Z,2.78
2022-08-07T03:15:30.273Z,2.30
2022-08-07T03:17:52.862Z,2.83
2022-08-07T03:19:56.568Z,2.58
2022-08-07T03:21:59.400Z,2.78
2022-08-07T03:24:18.089Z,2.90
2022-08-07T03:26:28.215Z,2.67
2022-08-07T03:28:37.208Z,2.90
2022-08-07T03:30:41.538Z,2.55
2022-08-07T03:32:57.049Z,2.72
2022-08-07T03:35:17.662Z,2.95
2022-08-07T03:37:27.723Z,2.78
2022-08-07T03:39:45.903Z,3.50
2022-08-07T03:41:55.644Z,2.80
2022-08-07T03:44:03.643Z,2.88
2022-08-07T03:46:18.231Z,3.10
2022-08-07T03:48:20.998Z,2.78
2022-08-07T03:50:25.629Z,2.53
2022-08-07T03:52:31.600Z,2.53
2022-08-07T03:54:54.119Z,2.70
2022-08-07T03:57:01.445Z,2.50
2022-08-07T03:59:12.741Z,2.72
2022-08-07T04:01:16.431Z,3.17
2022-08-07T04:03:18.644Z,3.03
2022-08-07T04:05:23.972Z,2.90
2022-08-07T04:07:41.669Z,3.05
2022-08-07T04:09:50.439Z,3.15
2022-08-07T04:12:26.431Z,2.83
2022-08-07T04:14:37.248Z,2.80
2022-08-07T04:16:37.878Z,2.95
2022-08-07T04:18:59.524Z,2.80
2022-08-07T04:21:04.103Z,2.97
2022-08-07T04:23:09.945Z,2.90
2022-08-07T04:25:25.401Z,2.72
2022-08-07T04:27:35.497Z,2.78
2022-08-07T04:29:58.311Z,2.78
2022-08-07T04:32:09.773Z,2.85
2022-08-07T04:34:16.409Z,2.78
2022-08-07T04:36:22.724Z,2.65
2022-08-07T04:38:28.123Z,2.45
2022-08-07T04:40:32.168Z,3.08
2022-08-07T04:45:03.071Z,2.53
2022-08-07T04:47:08.632Z,2.60
2022-08-07T04:49:24.602Z,2.72
2022-08-07T04:51:37.851Z,2.50
2022-08-07T04:54:18.719Z,2.75
2022-08-07T04:58:12.052Z,3.28
2022-08-07T05:00:08.071Z,2.80
2022-08-07T05:01:46.887Z,3.05
2022-08-07T05:04:06.846Z,2.75
2022-08-07T05:06:22.442Z,2.80
2022-08-07T05:09:07.574Z,2.63
2022-08-07T05:11:19.451Z,3.15
2022-08-07T05:14:54.374Z,2.97
2022-08-07T05:15:59.931Z,2.85
2022-08-07T05:18:12.337Z,2.70
2022-08-07T05:20:22.661Z,2.53
2022-08-07T05:22:26.745Z,2.70
2022-08-07T05:24:40.315Z,2.50
2022-08-07T05:26:46.336Z,2.45
2022-08-07T05:28:53.091Z,2.70
2022-08-07T05:30:56.938Z,2.70
2022-08-07T05:33:03.388Z,2.75
2022-08-07T05:35:08.907Z,2.95
2022-08-07T05:37:10.938Z,2.20
2022-08-07T05:40:05.491Z,2.60
2022-08-07T05:44:12.784Z,2.35
2022-08-07T05:46:16.920Z,2.22
2022-08-07T05:48:26.424Z,2.60
2022-08-07T05:50:30.585Z,2.53
2022-08-07T05:52:32.922Z,2.15
2022-08-07T05:54:53.429Z,2.38
2022-08-07T05:56:58.758Z,1.90
2022-08-07T06:01:08.432Z,1.83
2022-08-07T06:03:14.402Z,1.90
2022-08-07T06:07:22.961Z,1.92
2022-08-07T06:10:05.491Z,1.75
2022-08-07T06:12:07.611Z,1.77
2022-08-07T06:14:13.067Z,1.60
2022-08-07T06:16:23.646Z,1.52
2022-08-07T06:18:32.478Z,1.70
2022-08-07T06:20:49.946Z,1.27
2022-08-07T06:23:04.101Z,1.30
2022-08-07T06:25:23.364Z,1.55
2022-08-07T06:28:00.582Z,1.38
2022-08-07T06:29:47.873Z,1.20
2022-08-07T06:31:51.607Z,1.10
2022-08-07T06:33:53.490Z,1.00
2022-08-07T06:36:12.856Z,0.82
2022-08-07T06:38:20.408Z,1.02
2022-08-07T06:40:22.753Z,0.82
2022-08-07T06:42:36.164Z,1.00
2022-08-07T06:44:40.911Z,1.58
2022-08-07T06:48:44.826Z,1.08
2022-08-07T06:50:48.634Z,0.65
2022-08-07T06:52:55.793Z,0.60
2022-08-07T06:55:32.464Z,1.00
2022-08-07T06:57:21.861Z,0.90
2022-08-07T07:00:12.289Z,0.88
2022-08-07T07:02:08.829Z,0.90
2022-08-07T07:04:32.505Z,0.93
2022-08-07T07:06:39.392Z,1.02
2022-08-07T07:59:55.899Z,1.50
2022-08-07T08:02:10.365Z,1.40
2022-08-07T08:04:14.317Z,1.10
2022-08-07T08:08:34.862Z,1.13
2022-08-07T08:10:40.301Z,1.02
2022-08-07T08:12:52.190Z,0.80
2022-08-07T08:14:54.992Z,1.45
2022-08-07T08:17:56.010Z,1.33
2022-08-07T08:20:17.644Z,1.50
2022-08-07T08:21:55.400Z,1.25
2022-08-07T08:24:07.634Z,1.10
2022-08-07T08:26:29.680Z,1.63
2022-08-07T08:28:37.849Z,1.45
2022-08-07T08:30:51.032Z,1.30
2022-08-07T08:33:10.329Z,1.40
2022-08-07T08:35:28.462Z,1.40
2022-08-07T08:38:01.736Z,1.15
2022-08-07T08:39:58.324Z,1.85
2022-08-07T08:42:06.720Z,1.30
2022-08-07T08:44:59.092Z,1.40
2022-08-07T08:47:31.939Z,1.30
2022-08-07T08:50:35.425Z,1.17
2022-08-07T08:53:05.219Z,1.50
2022-08-07T08:55:55.064Z,3.20
2022-08-07T08:58:13.313Z,1.60
2022-08-07T09:02:40.420Z,1.70
2022-08-07T09:04:52.329Z,3.75
2022-08-07T09:07:03.505Z,1.63
2022-08-07T09:09:30.058Z,1.33
2022-08-07T09:12:20.111Z,2.10
2022-08-07T09:14:58.708Z,2.28
2022-08-07T09:17:59.337Z,1.70
2022-08-07T09:20:34.772Z,1.27
2022-08-07T09:24:54.807Z,1.40
2022-08-07T09:25:17.819Z,1.60
2022-08-07T09:28:00.515Z,1.40
2022-08-07T09:30:09.329Z,1.40
2022-08-07T09:32:39.160Z,1.30
2022-08-07T09:36:04.168Z,1.40
2022-08-07T09:37:53.696Z,1.20
2022-08-07T09:40:05.913Z,1.30
2022-08-07T09:42:55.926Z,1.88
2022-08-07T09:47:23.903Z,1.90
2022-08-07T09:47:58.914Z,1.90
2022-08-07T09:50:21.374Z,2.20
2022-08-07T09:52:40.644Z,2.67
2022-08-07T09:54:57.925Z,2.65
2022-08-07T09:57:06.053Z,2.80
2022-08-07T09:59:21.670Z,3.25
2022-08-07T10:01:51.019Z,3.20
2022-08-07T10:04:32.613Z,1.40
2022-08-07T10:07:24.415Z,1.38
2022-08-07T10:10:11.952Z,2.10
2022-08-07T10:12:29.344Z,1.30
2022-08-07T10:15:01.582Z,2.13
2022-08-07T10:17:23.684Z,2.10
2022-08-07T10:19:38.663Z,2.22
2022-08-07T10:22:14.255Z,1.85
2022-08-07T10:24:38.130Z,2.08
2022-08-07T10:26:53.333Z,2.30
2022-08-07T10:29:04.632Z,2.90
2022-08-07T10:31:24.684Z,2.40
2022-08-07T10:34:05.556Z,2.20
2022-08-07T10:36:47.572Z,1.50
2022-08-07T10:38:52.420Z,1.73
2022-08-07T10:41:11.977Z,1.50
2022-08-07T10:43:34.625Z,1.65
2022-08-07T10:45:57.434Z,1.98
2022-08-07T10:48:44.021Z,1.77
2022-08-07T10:51:39.329Z,1.50
2022-08-07T10:54:11.796Z,1.10
2022-08-07T10:56:31.151Z,1.33
2022-08-07T10:59:13.569Z,1.27
2022-08-07T11:02:05.438Z,1.55
2022-08-07T11:04:39.933Z,1.63
2022-08-07T11:07:03.480Z,1.83
2022-08-07T11:10:09.293Z,1.88
2022-08-07T11:11:59.329Z,2.08
2022-08-07T11:14:56.786Z,2.15
2022-08-07T11:16:54.789Z,2.20
2022-08-07T11:19:10.013Z,2.25
2022-08-07T11:21:24.746Z,2.10
2022-08-07T11:24:13.417Z,1.40
2022-08-07T11:26:49.968Z,1.42
2022-08-07T11:29:01.740Z,1.52
2022-08-07T11:31:59.629Z,1.50
2022-08-07T11:34:10.149Z,3.38
2022-08-07T11:36:34.761Z,3.85
2022-08-07T11:38:58.195Z,4.18
2022-08-07T11:41:18.223Z,3.40
2022-08-07T11:43:54.705Z,2.20
2022-08-07T11:46:10.700Z,1.77
2022-08-07T11:48:35.358Z,1.60
2022-08-07T11:50:58.465Z,1.50
2022-08-07T11:53:37.699Z,1.40
2022-08-07T11:58:53.335Z,3.13
2022-08-07T12:01:19.985Z,5.45
2022-08-07T12:03:46.881Z,3.58
2022-08-07T12:06:37.379Z,3.80
2022-08-07T12:08:48.584Z,4.32
2022-08-07T12:11:20.449Z,3.40
2022-08-07T12:13:44.912Z,3.15
2022-08-07T12:16:07.075Z,3.50
2022-08-07T12:18:30.733Z,3.17
2022-08-07T12:20:42.556Z,2.72
2022-08-07T12:22:58.789Z,3.10
2022-08-07T12:25:09.118Z,1.80
2022-08-07T12:28:04.050Z,1.70
2022-08-07T12:30:09.184Z,2.33
2022-08-07T12:32:51.032Z,2.20
2022-08-07T12:34:56.333Z,1.80
2022-08-07T12:37:00.658Z,2.53
2022-08-07T12:39:41.155Z,2.20
2022-08-07T12:41:49.426Z,1.90
2022-08-07T12:44:04.259Z,2.08
2022-08-07T12:46:32.791Z,2.53
2022-08-07T12:48:55.282Z,2.38
2022-08-07T12:51:17.705Z,1.67
2022-08-07T12:54:03.090Z,2.13
2022-08-07T12:56:26.646Z,2.17
2022-08-07T12:58:35.403Z,2.15
2022-08-07T13:01:07.788Z,2.10
2022-08-07T13:03:27.558Z,2.08
2022-08-07T13:06:04.652Z,1.92
2022-08-07T13:08:53.000Z,1.70
2022-08-07T13:11:25.765Z,1.75
2022-08-07T13:14:02.245Z,1.70
2022-08-07T13:16:28.769Z,1.83
2022-08-07T13:18:53.967Z,1.80
2022-08-07T13:21:05.389Z,5.30
2022-08-07T13:24:00.822Z,7.85
2022-08-07T13:25:45.884Z,2.47
2022-08-07T13:28:11.559Z,2.75
2022-08-07T13:30:18.903Z,2.00
2022-08-07T13:34:30.500Z,1.83
2022-08-07T13:36:05.380Z,1.77
2022-08-07T13:38:25.964Z,2.55
2022-08-07T13:40:42.452Z,1.92
2022-08-07T13:42:48.817Z,2.90
2022-08-07T13:45:11.778Z,1.80
2022-08-07T13:47:15.947Z,1.97
2022-08-07T13:50:32.541Z,1.70
2022-08-07T13:52:05.483Z,1.60
2022-08-07T13:54:30.283Z,1.60
2022-08-07T13:56:41.355Z,1.60
2022-08-07T13:58:57.023Z,1.60
2022-08-07T14:01:08.845Z,1.30
2022-08-07T14:03:13.815Z,1.40
2022-08-07T14:05:21.620Z,1.63
2022-08-07T14:07:31.215Z,2.45
2022-08-07T14:10:01.933Z,2.03
2022-08-07T14:12:07.432Z,2.10
2022-08-07T14:14:15.650Z,2.80
2022-08-07T14:16:17.954Z,2.40
2022-08-07T14:18:32.691Z,2.08
2022-08-07T14:20:42.384Z,2.28
2022-08-07T14:22:52.649Z,3.20
2022-08-07T14:25:00.550Z,2.90
2022-08-07T14:28:11.417Z,2.88
2022-08-07T14:30:07.714Z,2.83
2022-08-07T14:32:01.660Z,2.65
2022-08-07T14:34:07.264Z,2.80
2022-08-07T14:36:10.582Z,2.58
2022-08-07T14:40:49.511Z,2.65
2022-08-07T14:43:57.455Z,2.95
2022-08-07T14:47:59.141Z,2.45
2022-08-07T14:50:06.962Z,2.47
2022-08-07T14:52:13.716Z,2.55
2022-08-07T14:54:33.047Z,2.53
2022-08-07T14:56:42.073Z,2.72
2022-08-07T14:58:53.949Z,3.65
2022-08-07T15:00:59.200Z,3.92
2022-08-07T15:05:30.394Z,4.07
2022-08-07T15:10:01.987Z,4.18
2022-08-07T15:12:26.165Z,5.70
2022-08-07T15:14:33.914Z,5.25
2022-08-07T15:17:11.601Z,3.43
2022-08-07T15:19:19.056Z,2.38
2022-08-07T15:22:04.351Z,2.20
2022-08-07T15:26:47.941Z,3.80
2022-08-07T15:28:59.500Z,3.10
2022-08-07T15:33:46.166Z,2.65
2022-08-07T15:36:01.455Z,2.50
2022-08-07T15:38:17.678Z,3.00
2022-08-07T15:40:35.072Z,2.40
2022-08-07T15:42:47.623Z,3.10
2022-08-07T15:44:52.454Z,2.60
2022-08-07T15:46:58.540Z,2.60
2022-08-07T15:49:15.195Z,2.65
2022-08-07T15:51:19.617Z,2.63
2022-08-07T15:53:51.864Z,3.22
2022-08-07T15:58:07.253Z,2.80
2022-08-07T16:00:31.132Z,2.28
2022-08-07T16:02:47.287Z,2.60
2022-08-07T16:04:58.089Z,2.60
2022-08-07T16:07:04.763Z,2.60
2022-08-07T16:09:22.378Z,1.70
2022-08-07T16:11:43.287Z,1.90
2022-08-07T16:13:58.785Z,1.50
2022-08-07T16:16:48.291Z,2.53
2022-08-07T16:18:54.576Z,2.13
2022-08-07T16:21:56.884Z,1.95
2022-08-07T16:24:03.207Z,2.08
2022-08-07T16:26:30.665Z,3.78
2022-08-07T16:30:06.066Z,2.30
2022-08-07T16:31:51.259Z,2.00
2022-08-07T16:34:10.512Z,2.00
2022-08-07T16:36:34.219Z,2.33
2022-08-07T16:39:02.063Z,3.00
2022-08-07T16:41:16.837Z,1.60
2022-08-07T16:44:06.280Z,1.70
2022-08-07T16:47:04.465Z,1.90
2022-08-07T16:50:20.314Z,1.67
2022-08-07T16:52:49.183Z,1.63
2022-08-07T16:54:54.978Z,1.85
2022-08-07T16:58:01.997Z,1.65
2022-08-07T17:00:14.842Z,1.63
2022-08-07T17:02:53.223Z,1.80
2022-08-07T17:06:01.547Z,1.60
2022-08-07T17:07:58.246Z,1.90
2022-08-07T17:10:30.225Z,1.85
2022-08-07T17:12:47.458Z,1.88
2022-08-07T17:15:01.880Z,2.22
2022-08-07T17:17:15.969Z,1.77
2022-08-07T17:20:02.332Z,2.05
2022-08-07T17:22:10.654Z,1.30
2022-08-07T17:24:48.142Z,1.60
2022-08-07T17:26:58.621Z,1.55
2022-08-07T17:29:04.794Z,1.70
2022-08-07T17:31:25.838Z,1.80
2022-08-07T17:34:08.748Z,1.38
2022-08-07T17:36:03.053Z,1.33
2022-08-07T17:38:33.178Z,1.30
2022-08-07T17:40:50.629Z,1.40
2022-08-07T17:43:14.946Z,1.40
2022-08-07T17:45:29.658Z,1.63
2022-08-07T17:47:42.459Z,1.50
2022-08-07T17:50:00.469Z,1.52
2022-08-07T17:52:39.577Z,1.70
2022-08-07T17:54:54.084Z,1.95
2022-08-07T17:57:18.724Z,2.47
2022-08-07T17:59:35.899Z,1.33
2022-08-07T18:01:58.105Z,1.50
2022-08-07T18:04:39.598Z,1.80
2022-08-07T18:07:20.586Z,1.60
2022-08-07T18:10:05.276Z,2.03
2022-08-07T18:12:28.557Z,2.22
2022-08-07T18:14:54.915Z,2.42
2022-08-07T18:17:06.390Z,2.10
2022-08-07T18:21:04.455Z,2.42
2022-08-07T18:22:02.389Z,2.20
2022-08-07T18:24:33.922Z,1.90
2022-08-07T18:26:40.576Z,2.45
2022-08-07T18:28:57.667Z,2.00
2022-08-07T18:31:07.504Z,2.53
2022-08-07T18:33:54.918Z,3.03
2022-08-07T18:36:16.457Z,2.92
2022-08-07T18:38:55.357Z,2.33
2022-08-07T18:40:59.305Z,2.10
2022-08-07T18:43:42.584Z,2.35
2022-08-07T18:46:25.839Z,2.58
2022-08-07T18:50:19.617Z,2.78
2022-08-07T18:52:34.720Z,3.00
2022-08-07T18:54:27.828Z,3.53
2022-08-07T18:56:58.297Z,4.38
2022-08-07T18:59:47.704Z,3.80
2022-08-07T19:02:19.428Z,4.28
2022-08-07T19:04:58.060Z,5.03
2022-08-07T19:07:35.210Z,5.68
2022-08-07T19:09:59.298Z,5.97
2022-08-07T19:12:20.921Z,6.93
2022-08-07T19:14:52.442Z,8.70
2022-08-07T19:17:06.630Z,8.13
2022-08-07T19:19:31.731Z,6.97
2022-08-07T19:21:56.955Z,5.75
2022-08-07T19:24:30.669Z,7.10
2022-08-07T19:27:01.994Z,6.43
2022-08-07T19:31:04.153Z,7.38
2022-08-07T19:32:08.172Z,7.45
2022-08-07T19:34:01.503Z,6.32
2022-08-07T19:36:08.917Z,6.53
2022-08-07T19:38:17.228Z,6.90
2022-08-07T19:40:31.266Z,7.03
2022-08-07T19:42:43.132Z,7.43
2022-08-07T19:44:50.147Z,6.93
2022-08-07T19:46:58.043Z,6.88
2022-08-07T19:49:06.051Z,6.72
2022-08-07T19:51:19.149Z,7.47
2022-08-07T19:54:34.443Z,7.25
2022-08-07T19:55:57.297Z,7.35
2022-08-07T19:58:13.144Z,6.97
2022-08-07T20:00:29.197Z,9.00
2022-08-07T20:02:39.179Z,7.00
2022-08-07T20:04:48.954Z,7.70
2022-08-07T20:06:54.210Z,7.75
2022-08-07T20:08:59.444Z,7.25
2022-08-07T20:11:10.118Z,7.70
2022-08-07T20:13:22.986Z,6.70
2022-08-07T20:15:27.879Z,6.60
2022-08-07T20:17:38.667Z,6.72
2022-08-07T20:19:48.042Z,8.25
2022-08-07T20:22:00.234Z,8.13
2022-08-07T20:24:05.988Z,7.28
2022-08-07T20:26:10.288Z,7.63
2022-08-07T20:28:14.889Z,7.72
2022-08-07T20:30:21.748Z,7.20
2022-08-07T20:32:40.349Z,7.82
2022-08-07T20:34:51.198Z,6.45
2022-08-07T20:36:58.665Z,6.72
2022-08-07T20:39:17.853Z,6.90
2022-08-07T20:41:34.162Z,6.68
2022-08-07T20:43:47.829Z,6.47
2022-08-07T20:46:28.849Z,7.65
2022-08-07T20:48:30.267Z,7.60
2022-08-07T20:50:33.669Z,7.65
2022-08-07T20:52:52.432Z,7.65
2022-08-07T20:54:56.287Z,7.85
2022-08-07T20:57:08.368Z,8.20
2022-08-07T21:00:04.879Z,7.50
2022-08-07T21:01:45.947Z,7.30
2022-08-07T21:04:22.960Z,7.93
2022-08-07T21:06:28.204Z,8.18
2022-08-07T21:08:42.540Z,7.15
2022-08-07T21:10:46.189Z,7.32
2022-08-07T21:12:49.935Z,7.63
2022-08-07T21:14:56.159Z,7.75
2022-08-07T21:18:00.590Z,7.38
2022-08-07T21:19:32.035Z,7.47
2022-08-07T21:21:57.510Z,6.10
2022-08-07T21:24:25.575Z,7.93
2022-08-07T21:26:50.583Z,7.50
2022-08-07T21:28:58.232Z,7.60
2022-08-07T21:31:14.291Z,7.47
2022-08-07T21:33:41.283Z,7.00
2022-08-07T21:36:05.376Z,6.85
2022-08-07T21:38:27.889Z,6.80
2022-08-07T21:40:41.781Z,6.40
2022-08-07T21:42:52.959Z,6.82
2022-08-07T21:45:24.372Z,7.70
2022-08-07T21:47:38.142Z,7.25
2022-08-07T21:50:07.138Z,7.43
2022-08-07T21:52:36.757Z,6.80
2022-08-07T21:54:53.193Z,7.50
2022-08-07T21:57:31.229Z,6.30
2022-08-07T22:00:09.601Z,7.47
2022-08-07T22:02:42.269Z,9.23
2022-08-07T22:04:53.791Z,7.72
2022-08-07T22:07:35.755Z,8.85
2022-08-07T22:09:55.031Z,9.10
2022-08-07T22:12:27.380Z,7.95
2022-08-07T22:15:00.127Z,9.20
2022-08-07T22:17:04.253Z,8.18
2022-08-07T22:19:12.271Z,8.18
2022-08-07T22:21:20.423Z,7.50
2022-08-07T22:23:40.203Z,6.95
2022-08-07T22:25:57.019Z,6.93
2022-08-07T22:28:32.156Z,6.47
2022-08-07T22:31:07.391Z,6.43
2022-08-07T22:33:15.030Z,7.90
2022-08-07T22:35:17.988Z,7.57
2022-08-07T22:38:04.665Z,7.43
2022-08-07T22:40:15.206Z,6.32
2022-08-07T22:42:29.512Z,7.03
2022-08-07T22:44:35.678Z,7.57
2022-08-07T22:47:03.604Z,7.53
2022-08-07T22:49:33.847Z,7.30
2022-08-07T22:52:00.523Z,7.10
2022-08-07T22:54:31.540Z,7.15
2022-08-07T22:57:04.086Z,7.65
2022-08-07T22:59:15.638Z,6.85
2022-08-07T23:01:59.191Z,6.88
2022-08-07T23:04:57.050Z,6.28
2022-08-07T23:07:31.915Z,8.15
2022-08-07T23:10:06.048Z,6.90
2022-08-07T23:12:34.275Z,7.15
2022-08-07T23:15:03.497Z,7.78
2022-08-07T23:17:33.198Z,7.57
2022-08-07T23:20:05.839Z,7.30
2022-08-07T23:22:26.634Z,6.85
2022-08-07T23:24:34.307Z,6.47
2022-08-07T23:27:13.338Z,6.68
2022-08-07T23:29:43.184Z,7.65
2022-08-07T23:34:22.055Z,7.90
2022-08-07T23:35:12.350Z,8.00
2022-08-07T23:37:19.271Z,7.57
2022-08-07T23:39:43.387Z,7.95
2022-08-07T23:42:08.871Z,7.82
2022-08-07T23:44:42.266Z,7.60
2022-08-07T23:47:18.253Z,6.72
2022-08-07T23:49:50.978Z,7.22
2022-08-07T23:52:59.747Z,7.82
2022-08-07T23:54:58.349Z,7.57
2022-08-07T23:57:03.708Z,6.97
